sensor_id;sensor_type;location;lat;lon;timestamp;pressure;altitude;pressure_sealevel;temperature;humidity
51526;BME280;37611;51.794;21.590;2022-10-16T00:03:59;100165.00;;;12.64;97.82
51526;BME280;37611;51.794;21.590;2022-10-16T00:08:01;100171.15;;;12.55;97.73
51526;BME280;37611;51.794;21.590;2022-10-16T00:12:04;100172.98;;;12.51;98.29
51526;BME280;37611;51.794;21.590;2022-10-16T00:16:09;100177.98;;;12.50;98.33
51526;BME280;37611;51.794;21.590;2022-10-16T00:20:11;100173.43;;;12.51;98.88
51526;BME280;37611;51.794;21.590;2022-10-16T00:24:12;100171.88;;;12.53;99.02
51526;BME280;37611;51.794;21.590;2022-10-16T00:28:14;100173.55;;;12.54;99.28
51526;BME280;37611;51.794;21.590;2022-10-16T00:32:16;100179.52;;;12.54;99.38
51526;BME280;37611;51.794;21.590;2022-10-16T00:36:21;100184.88;;;12.55;99.44
51526;BME280;37611;51.794;21.590;2022-10-16T00:40:23;100188.91;;;12.57;99.36
51526;BME280;37611;51.794;21.590;2022-10-16T00:44:49;100180.77;;;12.59;99.51
51526;BME280;37611;51.794;21.590;2022-10-16T00:52:57;100167.51;;;12.50;99.32
51526;BME280;37611;51.794;21.590;2022-10-16T00:57:02;100167.64;;;12.48;99.81
51526;BME280;37611;51.794;21.590;2022-10-16T01:01:05;100166.67;;;12.47;99.89
51526;BME280;37611;51.794;21.590;2022-10-16T01:05:08;100172.61;;;12.48;100.00
51526;BME280;37611;51.794;21.590;2022-10-16T01:09:37;100175.30;;;12.47;99.97
51526;BME280;37611;51.794;21.590;2022-10-16T01:13:50;100181.80;;;12.47;100.00
51526;BME280;37611;51.794;21.590;2022-10-16T01:22:13;100182.17;;;12.49;99.99
51526;BME280;37611;51.794;21.590;2022-10-16T01:30:37;100178.41;;;12.49;99.97
51526;BME280;37611;51.794;21.590;2022-10-16T01:34:50;100181.59;;;12.48;99.96
51526;BME280;37611;51.794;21.590;2022-10-16T01:38:54;100176.09;;;12.45;99.84
51526;BME280;37611;51.794;21.590;2022-10-16T01:43:06;100173.48;;;12.43;100.00
51526;BME280;37611;51.794;21.590;2022-10-16T01:47:10;100180.80;;;12.45;100.00
51526;BME280;37611;51.794;21.590;2022-10-16T01:51:15;100180.11;;;12.45;100.00
51526;BME280;37611;51.794;21.590;2022-10-16T01:55:24;100183.54;;;12.47;100.00
51526;BME280;37611;51.794;21.590;2022-10-16T01:59:30;100190.48;;;12.48;99.88
51526;BME280;37611;51.794;21.590;2022-10-16T02:03:34;100199.89;;;12.49;99.89
51526;BME280;37611;51.794;21.590;2022-10-16T02:07:37;100206.89;;;12.51;99.89
51526;BME280;37611;51.794;21.590;2022-10-16T02:11:38;100206.41;;;12.52;99.88
51526;BME280;37611;51.794;21.590;2022-10-16T02:15:40;100200.16;;;12.55;99.83
51526;BME280;37611;51.794;21.590;2022-10-16T02:19:43;100202.30;;;12.53;99.89
51526;BME280;37611;51.794;21.590;2022-10-16T02:24:01;100208.56;;;12.54;99.76
51526;BME280;37611;51.794;21.590;2022-10-16T02:28:22;100211.36;;;12.54;99.68
51526;BME280;37611;51.794;21.590;2022-10-16T02:32:30;100208.09;;;12.53;99.72
51526;BME280;37611;51.794;21.590;2022-10-16T02:36:33;100211.13;;;12.53;99.90
51526;BME280;37611;51.794;21.590;2022-10-16T02:40:37;100211.45;;;12.49;99.91
51526;BME280;37611;51.794;21.590;2022-10-16T02:44:39;100211.63;;;12.47;99.98
51526;BME280;37611;51.794;21.590;2022-10-16T02:48:40;100211.02;;;12.43;100.00
51526;BME280;37611;51.794;21.590;2022-10-16T02:52:42;100201.38;;;12.43;100.00
51526;BME280;37611;51.794;21.590;2022-10-16T02:56:44;100198.49;;;12.39;100.00
51526;BME280;37611;51.794;21.590;2022-10-16T03:00:46;100194.04;;;12.35;100.00
51526;BME280;37611;51.794;21.590;2022-10-16T03:04:47;100196.08;;;12.33;100.00
51526;BME280;37611;51.794;21.590;2022-10-16T03:08:49;100197.41;;;12.32;100.00
51526;BME280;37611;51.794;21.590;2022-10-16T03:12:51;100199.42;;;12.33;100.00
51526;BME280;37611;51.794;21.590;2022-10-16T03:16:52;100210.42;;;12.36;100.00
51526;BME280;37611;51.794;21.590;2022-10-16T03:20:54;100210.78;;;12.39;100.00
51526;BME280;37611;51.794;21.590;2022-10-16T03:24:56;100206.96;;;12.40;100.00
51526;BME280;37611;51.794;21.590;2022-10-16T03:28:57;100212.55;;;12.39;100.00
51526;BME280;37611;51.794;21.590;2022-10-16T03:32:59;100220.08;;;12.37;100.00
51526;BME280;37611;51.794;21.590;2022-10-16T03:37:01;100224.08;;;12.38;100.00
51526;BME280;37611;51.794;21.590;2022-10-16T03:41:03;100229.44;;;12.38;100.00
51526;BME280;37611;51.794;21.590;2022-10-16T03:45:05;100236.14;;;12.40;100.00
51526;BME280;37611;51.794;21.590;2022-10-16T03:49:07;100238.04;;;12.40;100.00
51526;BME280;37611;51.794;21.590;2022-10-16T03:53:09;100246.39;;;12.41;100.00
51526;BME280;37611;51.794;21.590;2022-10-16T03:57:11;100248.27;;;12.43;100.00
51526;BME280;37611;51.794;21.590;2022-10-16T04:01:13;100247.68;;;12.44;100.00
51526;BME280;37611;51.794;21.590;2022-10-16T04:05:15;100249.45;;;12.44;100.00
51526;BME280;37611;51.794;21.590;2022-10-16T04:09:16;100247.75;;;12.45;100.00
51526;BME280;37611;51.794;21.590;2022-10-16T04:13:18;100245.15;;;12.44;100.00
51526;BME280;37611;51.794;21.590;2022-10-16T04:17:20;100246.48;;;12.43;100.00
51526;BME280;37611;51.794;21.590;2022-10-16T04:21:22;100251.95;;;12.45;100.00
51526;BME280;37611;51.794;21.590;2022-10-16T04:25:23;100255.14;;;12.46;100.00
51526;BME280;37611;51.794;21.590;2022-10-16T04:29:25;100256.05;;;12.44;100.00
51526;BME280;37611;51.794;21.590;2022-10-16T04:33:27;100256.27;;;12.41;100.00
51526;BME280;37611;51.794;21.590;2022-10-16T04:37:29;100256.72;;;12.35;100.00
51526;BME280;37611;51.794;21.590;2022-10-16T04:41:30;100259.14;;;12.30;100.00
51526;BME280;37611;51.794;21.590;2022-10-16T04:45:32;100260.50;;;12.27;100.00
51526;BME280;37611;51.794;21.590;2022-10-16T04:49:34;100260.18;;;12.21;100.00
51526;BME280;37611;51.794;21.590;2022-10-16T04:53:35;100270.92;;;12.19;100.00
51526;BME280;37611;51.794;21.590;2022-10-16T04:57:37;100275.49;;;12.17;100.00
51526;BME280;37611;51.794;21.590;2022-10-16T05:01:39;100277.92;;;12.16;100.00
51526;BME280;37611;51.794;21.590;2022-10-16T05:05:45;100277.66;;;12.15;100.00
51526;BME280;37611;51.794;21.590;2022-10-16T05:09:47;100277.86;;;12.15;100.00
51526;BME280;37611;51.794;21.590;2022-10-16T05:13:49;100282.48;;;12.13;100.00
51526;BME280;37611;51.794;21.590;2022-10-16T05:17:54;100290.27;;;12.12;100.00
51526;BME280;37611;51.794;21.590;2022-10-16T05:21:56;100294.23;;;12.13;100.00
51526;BME280;37611;51.794;21.590;2022-10-16T05:25:59;100301.30;;;12.12;100.00
51526;BME280;37611;51.794;21.590;2022-10-16T05:30:01;100305.89;;;12.14;100.00
51526;BME280;37611;51.794;21.590;2022-10-16T05:34:02;100308.08;;;12.15;100.00
51526;BME280;37611;51.794;21.590;2022-10-16T05:38:04;100307.59;;;12.18;100.00
51526;BME280;37611;51.794;21.590;2022-10-16T05:42:06;100304.55;;;12.20;100.00
51526;BME280;37611;51.794;21.590;2022-10-16T05:46:08;100308.59;;;12.23;100.00
51526;BME280;37611;51.794;21.590;2022-10-16T05:50:09;100306.50;;;12.32;100.00
51526;BME280;37611;51.794;21.590;2022-10-16T05:54:11;100312.28;;;12.37;100.00
51526;BME280;37611;51.794;21.590;2022-10-16T05:58:13;100316.17;;;12.51;100.00
51526;BME280;37611;51.794;21.590;2022-10-16T06:02:14;100324.25;;;12.78;100.00
51526;BME280;37611;51.794;21.590;2022-10-16T06:06:20;100323.47;;;13.11;100.00
51526;BME280;37611;51.794;21.590;2022-10-16T06:10:22;100329.45;;;13.41;99.71
51526;BME280;37611;51.794;21.590;2022-10-16T06:14:24;100327.57;;;13.69;98.94
51526;BME280;37611;51.794;21.590;2022-10-16T06:18:27;100343.52;;;13.93;98.04
51526;BME280;37611;51.794;21.590;2022-10-16T06:22:29;100343.27;;;14.13;97.20
51526;BME280;37611;51.794;21.590;2022-10-16T06:26:31;100348.60;;;14.06;96.07
51526;BME280;37611;51.794;21.590;2022-10-16T06:30:33;100349.39;;;13.85;96.36
51526;BME280;37611;51.794;21.590;2022-10-16T06:34:34;100351.92;;;13.72;96.41
51526;BME280;37611;51.794;21.590;2022-10-16T06:38:37;100349.15;;;13.78;95.74
51526;BME280;37611;51.794;21.590;2022-10-16T06:42:39;100352.65;;;13.73;95.46
51526;BME280;37611;51.794;21.590;2022-10-16T06:46:40;100362.50;;;13.85;95.34
51526;BME280;37611;51.794;21.590;2022-10-16T06:50:42;100366.06;;;14.12;94.57
51526;BME280;37611;51.794;21.590;2022-10-16T06:54:44;100377.14;;;14.15;94.41
51526;BME280;37611;51.794;21.590;2022-10-16T06:58:46;100370.55;;;14.27;93.34
51526;BME280;37611;51.794;21.590;2022-10-16T07:02:49;100370.12;;;14.59;92.52
51526;BME280;37611;51.794;21.590;2022-10-16T07:06:51;100369.34;;;14.87;91.64
51526;BME280;37611;51.794;21.590;2022-10-16T07:11:00;100362.52;;;15.08;90.16
51526;BME280;37611;51.794;21.590;2022-10-16T07:15:02;100376.09;;;15.21;89.41
51526;BME280;37611;51.794;21.590;2022-10-16T07:19:04;100389.69;;;15.50;89.11
51526;BME280;37611;51.794;21.590;2022-10-16T07:23:06;100387.90;;;15.71;87.73
51526;BME280;37611;51.794;21.590;2022-10-16T07:27:08;100388.88;;;15.97;87.13
51526;BME280;37611;51.794;21.590;2022-10-16T07:31:12;100387.44;;;16.29;86.28
51526;BME280;37611;51.794;21.590;2022-10-16T07:35:14;100384.91;;;16.54;84.79
51526;BME280;37611;51.794;21.590;2022-10-16T07:39:17;100382.82;;;16.55;84.04
51526;BME280;37611;51.794;21.590;2022-10-16T07:43:18;100395.64;;;16.65;83.58
51526;BME280;37611;51.794;21.590;2022-10-16T07:47:20;100402.11;;;16.81;83.44
51526;BME280;37611;51.794;21.590;2022-10-16T07:51:23;100417.89;;;17.04;82.14
51526;BME280;37611;51.794;21.590;2022-10-16T07:55:26;100422.34;;;17.10;81.70
51526;BME280;37611;51.794;21.590;2022-10-16T07:59:27;100424.47;;;17.46;81.39
51526;BME280;37611;51.794;21.590;2022-10-16T08:03:29;100421.52;;;17.82;80.60
51526;BME280;37611;51.794;21.590;2022-10-16T08:07:31;100425.35;;;18.00;80.63
51526;BME280;37611;51.794;21.590;2022-10-16T08:11:33;100422.00;;;17.93;79.70
51526;BME280;37611;51.794;21.590;2022-10-16T08:15:35;100420.89;;;17.87;79.46
51526;BME280;37611;51.794;21.590;2022-10-16T08:19:37;100422.42;;;17.89;79.56
51526;BME280;37611;51.794;21.590;2022-10-16T08:23:39;100426.30;;;18.33;79.22
51526;BME280;37611;51.794;21.590;2022-10-16T08:27:41;100432.49;;;18.76;76.88
51526;BME280;37611;51.794;21.590;2022-10-16T08:31:42;100429.36;;;18.88;75.32
51526;BME280;37611;51.794;21.590;2022-10-16T08:35:51;100430.43;;;18.94;75.03
51526;BME280;37611;51.794;21.590;2022-10-16T08:39:54;100426.35;;;18.88;74.67
51526;BME280;37611;51.794;21.590;2022-10-16T08:52:18;100422.61;;;19.02;73.98
51526;BME280;37611;51.794;21.590;2022-10-16T08:56:21;100421.18;;;19.13;73.72
51526;BME280;37611;51.794;21.590;2022-10-16T09:00:23;100428.20;;;19.22;73.24
51526;BME280;37611;51.794;21.590;2022-10-16T09:09:07;100427.53;;;19.27;72.26
51526;BME280;37611;51.794;21.590;2022-10-16T09:13:14;100424.03;;;19.46;72.31
51526;BME280;37611;51.794;21.590;2022-10-16T09:17:35;100423.20;;;19.82;71.45
51526;BME280;37611;51.794;21.590;2022-10-16T09:21:44;100416.36;;;20.06;71.54
51526;BME280;37611;51.794;21.590;2022-10-16T09:25:48;100418.72;;;20.20;70.88
51526;BME280;37611;51.794;21.590;2022-10-16T09:29:51;100422.90;;;20.14;70.00
51526;BME280;37611;51.794;21.590;2022-10-16T09:33:55;100429.30;;;19.83;69.32
51526;BME280;37611;51.794;21.590;2022-10-16T09:37:59;100429.84;;;19.52;69.84
51526;BME280;37611;51.794;21.590;2022-10-16T09:42:04;100435.50;;;19.42;70.65
51526;BME280;37611;51.794;21.590;2022-10-16T09:46:19;100441.30;;;19.27;70.90
51526;BME280;37611;51.794;21.590;2022-10-16T09:50:28;100446.23;;;19.14;71.33
51526;BME280;37611;51.794;21.590;2022-10-16T09:54:30;100450.09;;;19.01;71.75
51526;BME280;37611;51.794;21.590;2022-10-16T09:58:32;100451.00;;;18.95;72.31
51526;BME280;37611;51.794;21.590;2022-10-16T10:02:36;100446.08;;;19.10;72.16
51526;BME280;37611;51.794;21.590;2022-10-16T10:06:45;100436.84;;;19.11;71.21
51526;BME280;37611;51.794;21.590;2022-10-16T10:10:48;100437.48;;;19.01;71.11
51526;BME280;37611;51.794;21.590;2022-10-16T10:14:55;100436.10;;;18.88;71.85
51526;BME280;37611;51.794;21.590;2022-10-16T10:18:59;100433.16;;;18.78;72.19
51526;BME280;37611;51.794;21.590;2022-10-16T10:23:25;100430.42;;;18.71;72.30
51526;BME280;37611;51.794;21.590;2022-10-16T10:27:35;100428.59;;;18.70;72.79
51526;BME280;37611;51.794;21.590;2022-10-16T10:32:00;100422.16;;;18.69;73.02
51526;BME280;37611;51.794;21.590;2022-10-16T10:41:04;100415.55;;;18.90;73.19
51526;BME280;37611;51.794;21.590;2022-10-16T11:07:41;100406.60;;;19.73;71.71
51526;BME280;37611;51.794;21.590;2022-10-16T11:12:05;100397.20;;;19.68;71.36
51526;BME280;37611;51.794;21.590;2022-10-16T11:16:43;100394.34;;;19.63;71.61
51526;BME280;37611;51.794;21.590;2022-10-16T11:21:07;100386.96;;;19.63;71.25
51526;BME280;37611;51.794;21.590;2022-10-16T11:25:26;100386.94;;;19.70;71.09
51526;BME280;37611;51.794;21.590;2022-10-16T11:29:31;100389.23;;;19.79;71.30
51526;BME280;37611;51.794;21.590;2022-10-16T11:37:44;100394.36;;;20.00;71.36
51526;BME280;37611;51.794;21.590;2022-10-16T11:41:59;100395.04;;;20.20;71.07
51526;BME280;37611;51.794;21.590;2022-10-16T11:46:23;100390.40;;;20.35;70.39
51526;BME280;37611;51.794;21.590;2022-10-16T11:50:50;100389.53;;;20.35;70.28
51526;BME280;37611;51.794;21.590;2022-10-16T11:55:02;100388.71;;;20.24;69.89
51526;BME280;37611;51.794;21.590;2022-10-16T11:59:22;100394.55;;;20.20;69.91
51526;BME280;37611;51.794;21.590;2022-10-16T12:03:46;100399.22;;;20.16;70.03
51526;BME280;37611;51.794;21.590;2022-10-16T12:08:14;100401.02;;;20.27;69.74
51526;BME280;37611;51.794;21.590;2022-10-16T12:16:56;100403.77;;;20.59;69.32
51526;BME280;37611;51.794;21.590;2022-10-16T12:21:00;100406.70;;;20.63;68.72
51526;BME280;37611;51.794;21.590;2022-10-16T12:29:37;100412.52;;;20.20;69.10
51526;BME280;37611;51.794;21.590;2022-10-16T12:33:56;100408.66;;;20.06;69.37
51526;BME280;37611;51.794;21.590;2022-10-16T12:50:37;100402.00;;;19.97;70.06
51526;BME280;37611;51.794;21.590;2022-10-16T12:54:39;100398.05;;;19.93;70.35
51526;BME280;37611;51.794;21.590;2022-10-16T13:03:35;100398.59;;;19.86;71.00
51526;BME280;37611;51.794;21.590;2022-10-16T13:08:09;100403.79;;;19.82;71.48
51526;BME280;37611;51.794;21.590;2022-10-16T13:25:27;100411.29;;;19.77;71.93
51526;BME280;37611;51.794;21.590;2022-10-16T13:29:31;100405.75;;;19.74;71.90
51526;BME280;37611;51.794;21.590;2022-10-16T13:33:39;100406.21;;;19.68;72.19
51526;BME280;37611;51.794;21.590;2022-10-16T13:37:42;100413.02;;;19.60;72.80
51526;BME280;37611;51.794;21.590;2022-10-16T13:41:44;100407.26;;;19.53;73.13
51526;BME280;37611;51.794;21.590;2022-10-16T13:46:22;100407.29;;;19.50;72.96
51526;BME280;37611;51.794;21.590;2022-10-16T13:50:24;100408.97;;;19.40;73.74
51526;BME280;37611;51.794;21.590;2022-10-16T13:54:27;100415.92;;;19.32;74.12
51526;BME280;37611;51.794;21.590;2022-10-16T13:58:32;100422.38;;;19.22;74.46
51526;BME280;37611;51.794;21.590;2022-10-16T14:02:36;100431.34;;;19.10;74.78
51526;BME280;37611;51.794;21.590;2022-10-16T14:06:48;100438.17;;;19.01;75.26
51526;BME280;37611;51.794;21.590;2022-10-16T14:10:53;100442.99;;;18.91;75.55
51526;BME280;37611;51.794;21.590;2022-10-16T14:14:57;100450.96;;;18.81;75.93
51526;BME280;37611;51.794;21.590;2022-10-16T14:19:03;100449.66;;;18.72;76.44
51526;BME280;37611;51.794;21.590;2022-10-16T14:23:23;100447.36;;;18.63;77.16
51526;BME280;37611;51.794;21.590;2022-10-16T14:27:43;100448.50;;;18.57;77.43
51526;BME280;37611;51.794;21.590;2022-10-16T14:32:02;100445.08;;;18.49;77.89
51526;BME280;37611;51.794;21.590;2022-10-16T14:40:14;100448.95;;;18.29;78.74
51526;BME280;37611;51.794;21.590;2022-10-16T14:44:18;100449.13;;;18.24;79.31
51526;BME280;37611;51.794;21.590;2022-10-16T14:48:20;100452.39;;;18.23;79.75
51526;BME280;37611;51.794;21.590;2022-10-16T14:52:22;100453.25;;;18.22;80.12
51526;BME280;37611;51.794;21.590;2022-10-16T14:56:27;100455.80;;;18.20;80.36
51526;BME280;37611;51.794;21.590;2022-10-16T15:00:30;100451.30;;;18.14;80.51
51526;BME280;37611;51.794;21.590;2022-10-16T15:04:33;100453.77;;;18.08;80.64
51526;BME280;37611;51.794;21.590;2022-10-16T15:08:34;100455.39;;;18.03;80.92
51526;BME280;37611;51.794;21.590;2022-10-16T15:12:36;100458.92;;;17.99;81.52
51526;BME280;37611;51.794;21.590;2022-10-16T15:16:39;100465.05;;;17.99;81.89
51526;BME280;37611;51.794;21.590;2022-10-16T15:20:40;100466.96;;;17.95;81.99
51526;BME280;37611;51.794;21.590;2022-10-16T15:24:42;100466.67;;;17.90;81.79
51526;BME280;37611;51.794;21.590;2022-10-16T15:28:44;100467.30;;;17.84;82.05
51526;BME280;37611;51.794;21.590;2022-10-16T15:32:46;100468.92;;;17.78;82.31
51526;BME280;37611;51.794;21.590;2022-10-16T15:36:48;100468.77;;;17.74;82.84
51526;BME280;37611;51.794;21.590;2022-10-16T15:40:50;100466.11;;;17.71;82.92
51526;BME280;37611;51.794;21.590;2022-10-16T15:44:52;100466.48;;;17.68;83.05
51526;BME280;37611;51.794;21.590;2022-10-16T15:48:56;100470.42;;;17.63;83.08
51526;BME280;37611;51.794;21.590;2022-10-16T15:52:58;100476.39;;;17.56;83.17
51526;BME280;37611;51.794;21.590;2022-10-16T15:57:00;100480.42;;;17.48;83.42
51526;BME280;37611;51.794;21.590;2022-10-16T16:01:02;100486.98;;;17.40;83.61
51526;BME280;37611;51.794;21.590;2022-10-16T16:05:06;100496.77;;;17.35;84.01
51526;BME280;37611;51.794;21.590;2022-10-16T16:09:09;100506.19;;;17.34;84.09
51526;BME280;37611;51.794;21.590;2022-10-16T16:13:11;100510.45;;;17.32;84.26
51526;BME280;37611;51.794;21.590;2022-10-16T16:17:13;100513.71;;;17.29;84.51
51526;BME280;37611;51.794;21.590;2022-10-16T16:21:15;100517.66;;;17.22;84.60
51526;BME280;37611;51.794;21.590;2022-10-16T16:25:16;100524.61;;;17.14;84.68
51526;BME280;37611;51.794;21.590;2022-10-16T16:29:18;100524.25;;;17.08;85.21
51526;BME280;37611;51.794;21.590;2022-10-16T16:33:20;100533.63;;;17.04;85.69
51526;BME280;37611;51.794;21.590;2022-10-16T16:37:21;100535.77;;;17.01;85.79
51526;BME280;37611;51.794;21.590;2022-10-16T16:41:26;100538.98;;;16.98;86.00
51526;BME280;37611;51.794;21.590;2022-10-16T16:45:28;100544.63;;;16.96;86.32
51526;BME280;37611;51.794;21.590;2022-10-16T16:49:29;100542.00;;;16.95;86.36
51526;BME280;37611;51.794;21.590;2022-10-16T16:53:33;100542.67;;;16.93;86.30
51526;BME280;37611;51.794;21.590;2022-10-16T16:57:36;100545.58;;;16.88;86.28
51526;BME280;37611;51.794;21.590;2022-10-16T17:01:37;100549.78;;;16.81;86.81
51526;BME280;37611;51.794;21.590;2022-10-16T17:05:39;100555.05;;;16.77;86.84
51526;BME280;37611;51.794;21.590;2022-10-16T17:09:41;100561.94;;;16.74;87.32
51526;BME280;37611;51.794;21.590;2022-10-16T17:13:44;100564.44;;;16.71;87.41
51526;BME280;37611;51.794;21.590;2022-10-16T17:17:46;100568.98;;;16.64;87.77
51526;BME280;37611;51.794;21.590;2022-10-16T17:21:48;100571.35;;;16.62;88.12
51526;BME280;37611;51.794;21.590;2022-10-16T17:25:50;100574.36;;;16.59;88.18
51526;BME280;37611;51.794;21.590;2022-10-16T17:29:52;100576.50;;;16.58;88.12
51526;BME280;37611;51.794;21.590;2022-10-16T17:33:54;100582.94;;;16.55;88.14
51526;BME280;37611;51.794;21.590;2022-10-16T17:37:56;100581.66;;;16.53;87.94
51526;BME280;37611;51.794;21.590;2022-10-16T17:41:58;100583.17;;;16.51;87.84
51526;BME280;37611;51.794;21.590;2022-10-16T17:46:01;100581.42;;;16.49;88.05
51526;BME280;37611;51.794;21.590;2022-10-16T17:50:03;100584.27;;;16.47;88.29
51526;BME280;37611;51.794;21.590;2022-10-16T17:54:06;100588.64;;;16.48;88.33
51526;BME280;37611;51.794;21.590;2022-10-16T17:58:08;100591.73;;;16.47;88.29
51526;BME280;37611;51.794;21.590;2022-10-16T18:02:10;100600.27;;;16.46;88.17
51526;BME280;37611;51.794;21.590;2022-10-16T18:06:12;100593.84;;;16.42;88.09
51526;BME280;37611;51.794;21.590;2022-10-16T18:10:14;100599.23;;;16.40;87.84
51526;BME280;37611;51.794;21.590;2022-10-16T18:14:16;100610.51;;;16.37;88.13
51526;BME280;37611;51.794;21.590;2022-10-16T18:18:18;100617.65;;;16.35;88.40
51526;BME280;37611;51.794;21.590;2022-10-16T18:22:20;100626.38;;;16.31;88.56
51526;BME280;37611;51.794;21.590;2022-10-16T18:26:22;100634.60;;;16.26;88.55
51526;BME280;37611;51.794;21.590;2022-10-16T18:30:24;100640.84;;;16.20;88.48
51526;BME280;37611;51.794;21.590;2022-10-16T18:34:26;100645.45;;;16.12;88.54
51526;BME280;37611;51.794;21.590;2022-10-16T18:38:28;100649.77;;;16.09;88.61
51526;BME280;37611;51.794;21.590;2022-10-16T18:42:30;100647.37;;;16.06;88.92
51526;BME280;37611;51.794;21.590;2022-10-16T18:46:32;100650.05;;;16.06;89.28
51526;BME280;37611;51.794;21.590;2022-10-16T18:50:34;100657.19;;;16.04;89.28
51526;BME280;37611;51.794;21.590;2022-10-16T18:54:36;100660.17;;;16.03;89.42
51526;BME280;37611;51.794;21.590;2022-10-16T18:58:38;100671.21;;;15.97;89.09
51526;BME280;37611;51.794;21.590;2022-10-16T19:02:42;100666.80;;;15.90;89.35
51526;BME280;37611;51.794;21.590;2022-10-16T19:06:46;100665.66;;;15.87;89.69
51526;BME280;37611;51.794;21.590;2022-10-16T19:10:48;100669.48;;;15.84;89.81
51526;BME280;37611;51.794;21.590;2022-10-16T19:14:50;100679.61;;;15.82;90.11
51526;BME280;37611;51.794;21.590;2022-10-16T19:18:54;100680.41;;;15.83;90.15
51526;BME280;37611;51.794;21.590;2022-10-16T19:22:56;100686.61;;;15.81;89.92
51526;BME280;37611;51.794;21.590;2022-10-16T19:26:59;100687.97;;;15.77;90.00
51526;BME280;37611;51.794;21.590;2022-10-16T19:31:03;100691.75;;;15.70;89.79
51526;BME280;37611;51.794;21.590;2022-10-16T19:35:06;100697.11;;;15.62;89.96
51526;BME280;37611;51.794;21.590;2022-10-16T19:39:14;100700.42;;;15.55;90.17
51526;BME280;37611;51.794;21.590;2022-10-16T19:43:17;100710.98;;;15.45;90.27
51526;BME280;37611;51.794;21.590;2022-10-16T19:47:19;100713.31;;;15.32;90.52
51526;BME280;37611;51.794;21.590;2022-10-16T19:51:22;100708.80;;;15.21;90.84
51526;BME280;37611;51.794;21.590;2022-10-16T19:55:24;100714.82;;;15.11;90.84
51526;BME280;37611;51.794;21.590;2022-10-16T19:59:25;100718.77;;;15.01;90.99
51526;BME280;37611;51.794;21.590;2022-10-16T20:03:27;100721.50;;;14.93;91.36
51526;BME280;37611;51.794;21.590;2022-10-16T20:07:29;100724.79;;;14.85;91.57
51526;BME280;37611;51.794;21.590;2022-10-16T20:11:33;100733.05;;;14.79;91.75
51526;BME280;37611;51.794;21.590;2022-10-16T20:15:36;100734.93;;;14.69;92.13
51526;BME280;37611;51.794;21.590;2022-10-16T20:19:38;100733.53;;;14.63;92.61
51526;BME280;37611;51.794;21.590;2022-10-16T20:23:40;100738.56;;;14.57;92.71
51526;BME280;37611;51.794;21.590;2022-10-16T20:27:42;100742.48;;;14.53;92.99
51526;BME280;37611;51.794;21.590;2022-10-16T20:31:44;100744.12;;;14.47;92.70
51526;BME280;37611;51.794;21.590;2022-10-16T20:35:47;100743.92;;;14.40;93.15
51526;BME280;37611;51.794;21.590;2022-10-16T20:39:49;100749.72;;;14.37;93.27
51526;BME280;37611;51.794;21.590;2022-10-16T20:43:52;100753.45;;;14.37;93.64
51526;BME280;37611;51.794;21.590;2022-10-16T20:47:54;100756.85;;;14.38;93.88
51526;BME280;37611;51.794;21.590;2022-10-16T20:51:55;100755.02;;;14.37;94.39
51526;BME280;37611;51.794;21.590;2022-10-16T20:56:00;100753.21;;;14.29;95.35
51526;BME280;37611;51.794;21.590;2022-10-16T21:00:03;100760.98;;;14.18;94.80
51526;BME280;37611;51.794;21.590;2022-10-16T21:04:07;100780.36;;;14.10;94.90
51526;BME280;37611;51.794;21.590;2022-10-16T21:08:09;100782.37;;;14.09;95.38
51526;BME280;37611;51.794;21.590;2022-10-16T21:12:11;100793.86;;;14.10;95.41
51526;BME280;37611;51.794;21.590;2022-10-16T21:16:13;100795.48;;;14.13;95.73
51526;BME280;37611;51.794;21.590;2022-10-16T21:20:16;100795.73;;;14.14;95.94
51526;BME280;37611;51.794;21.590;2022-10-16T21:24:17;100797.22;;;14.14;96.07
51526;BME280;37611;51.794;21.590;2022-10-16T21:28:19;100804.77;;;14.15;96.24
51526;BME280;37611;51.794;21.590;2022-10-16T21:32:21;100798.60;;;14.12;96.06
51526;BME280;37611;51.794;21.590;2022-10-16T21:36:28;100798.90;;;14.07;96.15
51526;BME280;37611;51.794;21.590;2022-10-16T21:40:30;100805.61;;;14.04;95.98
51526;BME280;37611;51.794;21.590;2022-10-16T21:44:32;100816.07;;;14.02;96.11
51526;BME280;37611;51.794;21.590;2022-10-16T21:48:34;100820.99;;;14.03;96.40
51526;BME280;37611;51.794;21.590;2022-10-16T21:52:36;100823.70;;;14.06;96.41
51526;BME280;37611;51.794;21.590;2022-10-16T21:56:37;100825.41;;;14.03;96.15
51526;BME280;37611;51.794;21.590;2022-10-16T22:00:39;100821.02;;;13.99;96.47
51526;BME280;37611;51.794;21.590;2022-10-16T22:04:41;100819.95;;;13.94;96.03
51526;BME280;37611;51.794;21.590;2022-10-16T22:08:45;100825.96;;;13.87;96.03
51526;BME280;37611;51.794;21.590;2022-10-16T22:12:47;100829.64;;;13.82;96.11
51526;BME280;37611;51.794;21.590;2022-10-16T22:16:49;100834.54;;;13.75;96.03
51526;BME280;37611;51.794;21.590;2022-10-16T22:20:51;100828.86;;;13.67;96.62
51526;BME280;37611;51.794;21.590;2022-10-16T22:24:53;100826.87;;;13.59;96.54
51526;BME280;37611;51.794;21.590;2022-10-16T22:28:54;100826.54;;;13.51;96.66
51526;BME280;37611;51.794;21.590;2022-10-16T22:32:56;100827.28;;;13.45;96.84
51526;BME280;37611;51.794;21.590;2022-10-16T22:36:58;100824.55;;;13.39;97.07
51526;BME280;37611;51.794;21.590;2022-10-16T22:41:08;100822.45;;;13.32;96.90